createdAt,value
2022-08-17T00:00:49.273Z,100.00
2022-08-17T00:03:41.754Z,100.00
2022-08-17T00:06:29.781Z,100.00
2022-08-17T00:09:18.987Z,100.00
2022-08-17T00:12:40.695Z,100.00
2022-08-17T00:15:14.228Z,100.00
2022-08-17T00:18:00.632Z,100.00
2022-08-17T00:20:46.805Z,100.00
2022-08-17T00:23:33.232Z,100.00
2022-08-17T00:26:43.442Z,100.00
2022-08-17T00:29:29.212Z,100.00
2022-08-17T00:33:14.306Z,100.00
2022-08-17T00:35:23.698Z,100.00
2022-08-17T00:38:10.359Z,100.00
2022-08-17T00:40:59.639Z,100.00
2022-08-17T00:43:55.791Z,100.00
2022-08-17T00:46:44.321Z,100.00
2022-08-17T00:49:31.285Z,100.00
2022-08-17T00:52:23.025Z,100.00
2022-08-17T00:55:10.246Z,100.00
2022-08-17T00:58:00.242Z,100.00
2022-08-17T01:00:47.946Z,100.00
2022-08-17T01:03:36.463Z,100.00
2022-08-17T01:06:24.174Z,100.00
2022-08-17T01:09:10.586Z,100.00
2022-08-17T01:11:57.256Z,100.00
2022-08-17T01:14:44.040Z,100.00
2022-08-17T01:17:30.635Z,100.00
2022-08-17T01:20:17.391Z,100.00
2022-08-17T01:23:03.948Z,100.00
2022-08-17T01:25:52.910Z,100.00
2022-08-17T01:28:54.003Z,100.00
2022-08-17T01:31:49.194Z,100.00
2022-08-17T01:34:42.650Z,100.00
2022-08-17T01:37:35.248Z,100.00
2022-08-17T01:40:35.079Z,100.00
2022-08-17T01:43:27.975Z,100.00
2022-08-17T01:46:21.016Z,100.00
2022-08-17T01:49:12.876Z,100.00
2022-08-17T01:52:06.330Z,100.00
2022-08-17T01:54:53.399Z,100.00
2022-08-17T01:57:39.662Z,100.00
2022-08-17T02:00:27.577Z,100.00
2022-08-17T02:03:35.793Z,100.00
2022-08-17T02:06:27.997Z,100.00
2022-08-17T02:09:16.531Z,100.00
2022-08-17T02:12:38.556Z,100.00
2022-08-17T02:15:12.545Z,100.00
2022-08-17T02:17:59.105Z,100.00
2022-08-17T02:20:45.348Z,100.00
2022-08-17T02:23:35.596Z,100.00
2022-08-17T02:26:24.236Z,100.00
2022-08-17T02:29:15.107Z,100.00
2022-08-17T02:32:01.877Z,100.00
2022-08-17T02:34:48.443Z,100.00
2022-08-17T02:37:35.603Z,100.00
2022-08-17T02:40:36.031Z,100.00
2022-08-17T02:43:23.239Z,100.00
2022-08-17T02:46:09.575Z,100.00
2022-08-17T02:48:56.038Z,100.00
2022-08-17T02:51:42.355Z,100.00
2022-08-17T02:54:39.865Z,100.00
2022-08-17T02:57:28.470Z,100.00
2022-08-17T03:00:22.589Z,100.00
2022-08-17T03:03:10.889Z,100.00
2022-08-17T03:05:57.821Z,100.00
2022-08-17T03:08:44.124Z,100.00
2022-08-17T03:11:30.423Z,100.00
2022-08-17T03:14:17.037Z,100.00
2022-08-17T03:17:04.693Z,100.00
2022-08-17T03:19:50.947Z,100.00
2022-08-17T03:22:39.647Z,100.00
2022-08-17T03:25:29.810Z,100.00
2022-08-17T03:28:17.073Z,100.00
2022-08-17T03:31:03.888Z,100.00
2022-08-17T03:33:50.159Z,100.00
2022-08-17T03:36:36.616Z,100.00
2022-08-17T03:39:23.121Z,100.00
2022-08-17T03:42:32.527Z,100.00
2022-08-17T03:45:42.790Z,100.00
2022-08-17T03:48:48.375Z,100.00
2022-08-17T03:51:53.262Z,100.00
2022-08-17T03:54:59.162Z,100.00
2022-08-17T03:57:45.871Z,100.00
2022-08-17T04:00:32.354Z,100.00
2022-08-17T04:03:19.038Z,100.00
2022-08-17T04:06:06.254Z,100.00
2022-08-17T04:08:52.567Z,100.00
2022-08-17T04:11:39.461Z,100.00
2022-08-17T04:14:25.667Z,100.00
2022-08-17T04:17:11.863Z,100.00
2022-08-17T04:19:58.416Z,100.00
2022-08-17T04:23:04.471Z,100.00
2022-08-17T04:25:51.347Z,100.00
2022-08-17T04:28:37.846Z,100.00
2022-08-17T04:31:25.993Z,100.00
2022-08-17T04:34:12.748Z,100.00
2022-08-17T04:36:58.899Z,100.00
2022-08-17T04:40:05.246Z,100.00
2022-08-17T04:43:03.333Z,100.00
2022-08-17T04:45:55.864Z,100.00
2022-08-17T04:48:45.185Z,100.00
2022-08-17T04:51:33.718Z,100.00
2022-08-17T04:54:21.599Z,100.00
2022-08-17T04:57:07.878Z,100.00
2022-08-17T04:59:54.218Z,100.00
2022-08-17T05:02:50.993Z,100.00
2022-08-17T05:05:43.067Z,100.00
2022-08-17T05:08:29.766Z,100.00
2022-08-17T05:11:16.169Z,100.00
2022-08-17T05:14:03.474Z,100.00
2022-08-17T05:16:51.065Z,100.00
2022-08-17T05:19:37.654Z,95.49
2022-08-17T05:22:24.184Z,86.69
2022-08-17T05:25:10.313Z,81.38
2022-08-17T05:27:58.108Z,81.22
2022-08-17T05:30:46.038Z,83.34
2022-08-17T05:33:41.497Z,83.85
2022-08-17T05:36:42.397Z,85.41
2022-08-17T05:39:29.157Z,84.93
2022-08-17T05:42:19.262Z,89.33
2022-08-17T05:45:07.015Z,92.29
2022-08-17T05:47:53.389Z,95.13
2022-08-17T05:50:51.032Z,96.18
2022-08-17T05:53:50.761Z,95.79
2022-08-17T05:56:49.257Z,95.15
2022-08-17T05:59:44.528Z,92.70
2022-08-17T06:02:34.067Z,89.53
2022-08-17T06:05:32.880Z,90.58
2022-08-17T06:09:02.149Z,91.77
2022-08-17T06:11:58.832Z,93.54
2022-08-17T06:15:14.783Z,93.76
2022-08-17T06:18:05.416Z,92.54
2022-08-17T06:20:58.906Z,95.75
2022-08-17T06:23:50.616Z,96.98
2022-08-17T06:26:43.185Z,94.83
2022-08-17T06:29:37.526Z,93.07
2022-08-17T06:32:25.039Z,93.06
2022-08-17T06:35:15.190Z,92.77
2022-08-17T06:38:37.423Z,91.74
2022-08-17T06:41:37.986Z,91.83
2022-08-17T06:44:43.526Z,92.47
2022-08-17T06:47:49.755Z,92.78
2022-08-17T06:50:42.876Z,90.21
2022-08-17T06:53:45.469Z,86.47
2022-08-17T06:56:54.294Z,80.64
2022-08-17T06:59:56.394Z,81.66
2022-08-17T07:02:52.657Z,78.47
2022-08-17T07:05:45.039Z,75.12
2022-08-17T07:08:41.001Z,68.82
2022-08-17T07:11:37.618Z,69.39
2022-08-17T07:14:53.118Z,67.72
2022-08-17T07:17:56.850Z,66.13
2022-08-17T07:20:50.861Z,66.76
2022-08-17T07:23:49.684Z,65.92
2022-08-17T07:26:38.840Z,69.89
2022-08-17T07:29:25.402Z,72.96
2022-08-17T07:32:18.242Z,73.28
2022-08-17T07:35:10.804Z,67.07
2022-08-17T07:38:24.707Z,64.91
2022-08-17T07:41:13.002Z,69.80
2022-08-17T07:43:59.241Z,70.52
2022-08-17T07:47:10.711Z,68.75
2022-08-17T07:49:56.907Z,62.62
2022-08-17T07:52:50.658Z,63.96
2022-08-17T07:55:41.443Z,68.10
2022-08-17T07:58:27.970Z,68.22
2022-08-17T08:01:15.458Z,67.91
2022-08-17T08:04:59.334Z,67.06
2022-08-17T08:08:06.007Z,65.78
2022-08-17T08:11:03.027Z,67.03
2022-08-17T08:13:49.824Z,62.45
2022-08-17T08:16:36.714Z,66.40
2022-08-17T08:19:25.965Z,67.95
2022-08-17T08:22:21.942Z,68.19
2022-08-17T08:25:18.472Z,68.19
2022-08-17T08:28:33.922Z,66.35
2022-08-17T08:31:57.839Z,68.12
2022-08-17T08:35:08.212Z,64.10
2022-08-17T08:38:13.335Z,69.31
2022-08-17T08:41:21.234Z,65.91
2022-08-17T08:44:19.592Z,59.82
2022-08-17T08:47:35.454Z,66.75
2022-08-17T08:50:38.171Z,67.83
2022-08-17T08:53:49.557Z,72.80
2022-08-17T08:57:29.083Z,76.14
2022-08-17T09:00:19.068Z,76.08
2022-08-17T09:03:51.864Z,70.38
2022-08-17T09:06:56.863Z,78.76
2022-08-17T09:10:10.243Z,78.22
2022-08-17T09:13:19.583Z,76.91
2022-08-17T09:16:20.138Z,77.14
2022-08-17T09:19:30.027Z,75.55
2022-08-17T09:22:25.544Z,79.85
2022-08-17T09:26:07.803Z,73.23
2022-08-17T09:29:01.400Z,76.42
2022-08-17T09:31:55.211Z,78.91
2022-08-17T09:34:49.427Z,81.00
2022-08-17T09:37:51.381Z,80.14
2022-08-17T09:41:10.193Z,80.94
2022-08-17T09:43:56.376Z,85.34
2022-08-17T09:46:51.003Z,85.72
2022-08-17T09:49:37.508Z,86.41
2022-08-17T09:52:26.975Z,87.37
2022-08-17T09:55:13.436Z,86.69
2022-08-17T09:58:04.989Z,89.56
2022-08-17T10:01:03.314Z,88.33
2022-08-17T10:03:50.848Z,91.31
2022-08-17T10:06:52.238Z,93.75
2022-08-17T10:09:48.589Z,92.94
2022-08-17T10:13:04.058Z,92.30
2022-08-17T10:15:58.496Z,90.30
2022-08-17T10:19:13.767Z,90.39
2022-08-17T10:22:37.966Z,90.48
2022-08-17T10:25:59.765Z,86.98
2022-08-17T10:29:12.478Z,93.87
2022-08-17T10:32:08.491Z,97.69
2022-08-17T10:35:30.598Z,95.05
2022-08-17T10:38:58.880Z,97.27
2022-08-17T10:41:50.735Z,100.00
2022-08-17T10:45:02.016Z,100.00
2022-08-17T10:48:06.337Z,100.00
2022-08-17T10:50:57.632Z,100.00
2022-08-17T10:53:45.898Z,100.00
2022-08-17T10:56:45.478Z,100.00
2022-08-17T10:59:34.926Z,100.00
2022-08-17T11:02:27.379Z,100.00
2022-08-17T11:05:27.508Z,100.00
2022-08-17T11:08:30.950Z,100.00
2022-08-17T11:11:39.026Z,100.00
2022-08-17T11:14:55.711Z,100.00
2022-08-17T11:18:07.878Z,100.00
2022-08-17T11:21:25.206Z,100.00
2022-08-17T11:24:30.534Z,100.00
2022-08-17T11:27:33.975Z,100.00
2022-08-17T11:30:46.913Z,100.00
2022-08-17T11:33:36.924Z,100.00
2022-08-17T11:36:34.878Z,100.00
2022-08-17T11:39:39.361Z,100.00
2022-08-17T11:42:42.288Z,100.00
2022-08-17T11:45:53.702Z,100.00
2022-08-17T11:49:11.109Z,100.00
2022-08-17T11:52:01.117Z,100.00
2022-08-17T11:54:48.647Z,100.00
2022-08-17T11:57:41.060Z,100.00
2022-08-17T12:00:49.796Z,100.00
2022-08-17T12:03:39.111Z,100.00
2022-08-17T12:06:44.464Z,100.00
2022-08-17T12:09:34.392Z,100.00
2022-08-17T12:12:32.774Z,100.00
2022-08-17T12:15:28.548Z,100.00
2022-08-17T12:18:28.218Z,100.00
2022-08-17T12:21:22.218Z,100.00
2022-08-17T12:24:19.844Z,96.15
2022-08-17T12:27:09.615Z,89.15
2022-08-17T12:29:56.326Z,97.48
2022-08-17T12:32:47.522Z,98.88
2022-08-17T12:35:38.758Z,99.87
2022-08-17T12:38:31.829Z,100.00
2022-08-17T12:41:39.430Z,100.00
2022-08-17T12:44:29.829Z,100.00
2022-08-17T12:47:22.231Z,100.00
2022-08-17T12:50:28.955Z,100.00
2022-08-17T12:53:26.196Z,100.00
2022-08-17T12:56:13.453Z,100.00
2022-08-17T12:59:01.794Z,100.00
2022-08-17T13:01:49.492Z,100.00
2022-08-17T13:04:39.838Z,98.60
2022-08-17T13:07:46.593Z,97.18
2022-08-17T13:10:36.319Z,97.57
2022-08-17T13:13:26.503Z,96.08
2022-08-17T13:16:14.152Z,93.82
2022-08-17T13:19:15.283Z,91.13
2022-08-17T13:22:02.284Z,84.23
2022-08-17T13:25:05.291Z,76.78
2022-08-17T13:27:53.839Z,76.96
2022-08-17T13:30:40.636Z,78.98
2022-08-17T13:33:44.836Z,69.57
2022-08-17T13:36:33.356Z,70.90
2022-08-17T13:39:25.228Z,66.96
2022-08-17T13:42:51.583Z,72.83
2022-08-17T13:45:51.770Z,72.22
2022-08-17T13:48:38.674Z,66.09
2022-08-17T13:51:41.471Z,66.14
2022-08-17T13:54:32.098Z,67.73
2022-08-17T13:57:25.467Z,70.05
2022-08-17T14:00:32.659Z,63.86
2022-08-17T14:03:20.730Z,63.98
2022-08-17T14:06:07.470Z,64.98
2022-08-17T14:08:55.720Z,63.93
2022-08-17T14:11:43.367Z,62.92
2022-08-17T14:14:30.063Z,61.71
2022-08-17T14:17:17.263Z,66.87
2022-08-17T14:20:05.368Z,66.40
2022-08-17T14:22:55.630Z,69.08
2022-08-17T14:25:41.839Z,65.92
2022-08-17T14:28:28.185Z,57.60
2022-08-17T14:31:14.387Z,57.16
2022-08-17T14:34:00.896Z,55.41
2022-08-17T14:36:48.239Z,53.21
2022-08-17T14:39:34.997Z,53.22
2022-08-17T14:42:26.761Z,53.18
2022-08-17T14:45:31.856Z,55.01
2022-08-17T14:48:20.591Z,55.01
2022-08-17T14:51:07.616Z,54.80
2022-08-17T14:53:54.487Z,54.47
2022-08-17T14:56:40.840Z,55.06
2022-08-17T14:59:35.605Z,55.10
2022-08-17T15:02:29.335Z,55.12
2022-08-17T15:05:17.344Z,55.02
2022-08-17T15:08:05.697Z,54.46
2022-08-17T15:10:54.373Z,52.62
2022-08-17T15:13:53.060Z,54.09
2022-08-17T15:16:40.302Z,53.15
2022-08-17T15:19:26.674Z,54.35
2022-08-17T15:22:22.636Z,53.81
2022-08-17T15:25:10.871Z,53.68
2022-08-17T15:27:57.514Z,57.52
2022-08-17T15:30:45.004Z,57.32
2022-08-17T15:33:31.684Z,55.27
2022-08-17T15:36:19.003Z,52.91
2022-08-17T15:39:05.326Z,53.81
2022-08-17T15:41:58.729Z,51.99
2022-08-17T15:44:47.260Z,54.16
2022-08-17T15:47:33.439Z,54.54
2022-08-17T15:50:19.658Z,55.83
2022-08-17T15:53:05.959Z,55.38
2022-08-17T15:55:52.196Z,55.83
2022-08-17T15:58:40.032Z,54.81
2022-08-17T16:02:24.763Z,57.64
2022-08-17T16:04:34.235Z,57.28
2022-08-17T16:07:26.487Z,57.70
2022-08-17T16:10:18.629Z,59.81
2022-08-17T16:13:05.822Z,62.13
2022-08-17T16:16:04.162Z,59.55
2022-08-17T16:18:54.552Z,60.32
2022-08-17T16:21:43.435Z,58.98
2022-08-17T16:24:30.575Z,60.80
2022-08-17T16:27:17.303Z,58.69
2022-08-17T16:30:10.496Z,62.76
2022-08-17T16:33:01.630Z,57.79
2022-08-17T16:35:47.970Z,65.29
2022-08-17T16:38:35.683Z,67.56
2022-08-17T16:41:44.978Z,66.38
2022-08-17T16:44:32.105Z,72.78
2022-08-17T16:47:19.460Z,76.02
2022-08-17T16:50:07.121Z,80.21
2022-08-17T16:53:06.921Z,81.15
2022-08-17T16:55:53.316Z,83.68
2022-08-17T16:58:40.866Z,84.77
2022-08-17T17:01:30.220Z,86.42
2022-08-17T17:04:18.859Z,89.11
2022-08-17T17:07:38.000Z,89.34
2022-08-17T17:10:38.766Z,89.96
2022-08-17T17:13:40.439Z,90.42
2022-08-17T17:17:05.074Z,91.68
2022-08-17T17:19:59.625Z,92.26
2022-08-17T17:22:50.371Z,90.90
2022-08-17T17:25:52.501Z,94.79
2022-08-17T17:29:01.814Z,95.46
2022-08-17T17:32:23.649Z,95.69
2022-08-17T17:35:24.113Z,96.67
2022-08-17T17:38:45.251Z,97.55
2022-08-17T17:41:47.241Z,99.50
2022-08-17T17:44:40.860Z,97.73
2022-08-17T17:47:28.842Z,97.40
2022-08-17T17:50:18.749Z,97.59
2022-08-17T17:53:19.883Z,97.67
2022-08-17T17:56:42.869Z,99.38
2022-08-17T17:59:44.866Z,100.00
2022-08-17T18:02:52.124Z,100.00
2022-08-17T18:06:17.452Z,100.00
2022-08-17T18:09:33.903Z,100.00
2022-08-17T18:13:05.329Z,100.00
2022-08-17T18:15:53.911Z,100.00
2022-08-17T18:18:46.830Z,100.00
2022-08-17T18:21:39.037Z,100.00
2022-08-17T18:24:40.513Z,100.00
2022-08-17T18:27:34.516Z,100.00
2022-08-17T18:30:20.732Z,100.00
2022-08-17T18:33:28.946Z,100.00
2022-08-17T18:36:33.804Z,100.00
2022-08-17T18:39:28.376Z,100.00
2022-08-17T18:42:30.074Z,100.00
2022-08-17T18:45:42.506Z,100.00
2022-08-17T18:48:52.676Z,100.00
2022-08-17T18:51:43.314Z,100.00
2022-08-17T18:54:29.979Z,100.00
2022-08-17T18:57:31.411Z,100.00
2022-08-17T19:00:41.391Z,100.00
2022-08-17T19:03:28.473Z,100.00
2022-08-17T19:06:35.068Z,100.00
2022-08-17T19:09:32.583Z,100.00
2022-08-17T19:12:28.769Z,100.00
2022-08-17T19:15:22.954Z,100.00
2022-08-17T19:18:16.290Z,100.00
2022-08-17T19:21:10.614Z,100.00
2022-08-17T19:24:13.764Z,100.00
2022-08-17T19:27:24.873Z,100.00
2022-08-17T19:30:21.225Z,100.00
2022-08-17T19:33:07.547Z,100.00
2022-08-17T19:36:21.420Z,100.00
2022-08-17T19:39:13.726Z,100.00
2022-08-17T19:42:09.062Z,100.00
2022-08-17T19:44:55.547Z,100.00
2022-08-17T19:48:14.812Z,100.00
2022-08-17T19:51:15.638Z,100.00
2022-08-17T19:54:07.256Z,100.00
2022-08-17T19:57:05.128Z,100.00
2022-08-17T20:00:13.623Z,100.00
2022-08-17T20:03:06.613Z,100.00
2022-08-17T20:06:13.812Z,100.00
2022-08-17T20:09:14.967Z,100.00
2022-08-17T20:12:09.001Z,100.00
2022-08-17T20:15:10.863Z,100.00
2022-08-17T20:17:59.743Z,100.00
2022-08-17T20:20:57.151Z,100.00
2022-08-17T20:23:56.062Z,100.00
2022-08-17T20:26:58.017Z,100.00
2022-08-17T20:30:00.519Z,100.00
2022-08-17T20:32:52.610Z,100.00
2022-08-17T20:35:40.062Z,100.00
2022-08-17T20:38:45.971Z,100.00
2022-08-17T20:42:16.075Z,100.00
2022-08-17T20:45:25.868Z,100.00
2022-08-17T20:48:36.301Z,100.00
2022-08-17T20:51:22.610Z,100.00
2022-08-17T20:54:18.134Z,100.00
2022-08-17T20:57:09.205Z,100.00
2022-08-17T21:00:14.335Z,100.00
2022-08-17T21:03:22.546Z,100.00
2022-08-17T21:06:17.210Z,100.00
2022-08-17T21:09:13.308Z,100.00
2022-08-17T21:12:04.850Z,100.00
2022-08-17T21:15:06.960Z,100.00
2022-08-17T21:18:09.166Z,100.00
2022-08-17T21:21:16.865Z,100.00
2022-08-17T21:24:33.354Z,100.00
2022-08-17T21:27:42.931Z,100.00
2022-08-17T21:30:29.133Z,100.00
2022-08-17T21:33:25.112Z,100.00
2022-08-17T21:36:17.308Z,100.00
2022-08-17T21:39:10.325Z,100.00
2022-08-17T21:41:58.245Z,100.00
2022-08-17T21:44:50.907Z,100.00
2022-08-17T21:47:43.285Z,100.00
2022-08-17T21:50:30.066Z,100.00
2022-08-17T21:53:28.082Z,100.00
2022-08-17T21:56:24.710Z,100.00
2022-08-17T21:59:27.230Z,100.00
2022-08-17T22:02:20.804Z,100.00
2022-08-17T22:05:11.281Z,100.00
2022-08-17T22:08:03.585Z,100.00
2022-08-17T22:10:59.110Z,100.00
2022-08-17T22:13:45.758Z,100.00
2022-08-17T22:16:32.508Z,100.00
2022-08-17T22:19:20.189Z,100.00
2022-08-17T22:22:21.941Z,100.00
2022-08-17T22:25:19.433Z,100.00
2022-08-17T22:28:11.605Z,100.00
2022-08-17T22:31:06.658Z,100.00
2022-08-17T22:34:12.926Z,100.00
2022-08-17T22:37:27.262Z,100.00
2022-08-17T22:40:30.331Z,100.00
2022-08-17T22:43:26.093Z,100.00
2022-08-17T22:46:14.488Z,100.00
2022-08-17T22:49:00.913Z,100.00
2022-08-17T22:51:47.200Z,100.00
2022-08-17T22:54:52.682Z,100.00
2022-08-17T22:58:04.652Z,100.00
2022-08-17T23:00:51.523Z,100.00
2022-08-17T23:21:40.258Z,100.00
2022-08-17T23:24:33.069Z,100.00
2022-08-17T23:27:20.823Z,100.00
2022-08-17T23:30:10.525Z,100.00
2022-08-17T23:33:06.497Z,100.00
2022-08-17T23:35:53.911Z,100.00
2022-08-17T23:38:43.467Z,100.00
2022-08-17T23:41:35.174Z,100.00
2022-08-17T23:44:23.549Z,100.00
2022-08-17T23:47:11.074Z,100.00
2022-08-17T23:49:57.293Z,100.00
2022-08-17T23:52:47.935Z,100.00
2022-08-17T23:55:34.823Z,100.00
2022-08-17T23:58:21.493Z,100.00
